sensor_id;sensor_type;location;lat;lon;timestamp;temperature;humidity
28845;DHT22;15976;47.938;7.758;2023-05-10T00:00:42;14.10;97.50
28845;DHT22;15976;47.938;7.758;2023-05-10T00:03:10;14.00;97.50
28845;DHT22;15976;47.938;7.758;2023-05-10T00:05:37;14.00;97.60
28845;DHT22;15976;47.938;7.758;2023-05-10T00:08:04;14.00;97.70
28845;DHT22;15976;47.938;7.758;2023-05-10T00:10:32;14.00;97.70
28845;DHT22;15976;47.938;7.758;2023-05-10T00:12:59;14.00;97.70
28845;DHT22;15976;47.938;7.758;2023-05-10T00:15:27;14.00;97.60
28845;DHT22;15976;47.938;7.758;2023-05-10T00:17:54;14.00;97.60
28845;DHT22;15976;47.938;7.758;2023-05-10T00:20:21;14.00;97.60
28845;DHT22;15976;47.938;7.758;2023-05-10T00:22:48;13.90;97.70
28845;DHT22;15976;47.938;7.758;2023-05-10T00:25:15;13.90;97.70
28845;DHT22;15976;47.938;7.758;2023-05-10T00:27:42;13.90;97.70
28845;DHT22;15976;47.938;7.758;2023-05-10T00:30:10;14.00;97.70
28845;DHT22;15976;47.938;7.758;2023-05-10T00:32:37;13.90;97.70
28845;DHT22;15976;47.938;7.758;2023-05-10T00:35:05;13.90;97.70
28845;DHT22;15976;47.938;7.758;2023-05-10T00:37:32;14.00;97.80
28845;DHT22;15976;47.938;7.758;2023-05-10T00:39:59;14.00;97.80
28845;DHT22;15976;47.938;7.758;2023-05-10T00:42:26;14.00;97.70
28845;DHT22;15976;47.938;7.758;2023-05-10T00:44:54;14.00;97.70
28845;DHT22;15976;47.938;7.758;2023-05-10T00:47:21;14.00;97.70
28845;DHT22;15976;47.938;7.758;2023-05-10T00:49:48;14.00;97.70
28845;DHT22;15976;47.938;7.758;2023-05-10T00:52:16;13.90;97.60
28845;DHT22;15976;47.938;7.758;2023-05-10T00:54:43;13.90;97.70
28845;DHT22;15976;47.938;7.758;2023-05-10T00:57:11;13.90;97.70
28845;DHT22;15976;47.938;7.758;2023-05-10T00:59:41;14.00;97.70
28845;DHT22;15976;47.938;7.758;2023-05-10T01:02:08;13.90;97.80
28845;DHT22;15976;47.938;7.758;2023-05-10T01:04:35;14.00;97.80
28845;DHT22;15976;47.938;7.758;2023-05-10T01:07:05;14.00;97.80
28845;DHT22;15976;47.938;7.758;2023-05-10T01:09:32;14.00;98.00
28845;DHT22;15976;47.938;7.758;2023-05-10T01:12:00;14.00;97.60
28845;DHT22;15976;47.938;7.758;2023-05-10T01:14:29;13.90;97.80
28845;DHT22;15976;47.938;7.758;2023-05-10T01:16:56;14.00;97.90
28845;DHT22;15976;47.938;7.758;2023-05-10T01:19:28;14.00;97.80
28845;DHT22;15976;47.938;7.758;2023-05-10T01:38:38;13.90;97.90
28845;DHT22;15976;47.938;7.758;2023-05-10T01:47:03;13.90;97.70
28845;DHT22;15976;47.938;7.758;2023-05-10T01:49:37;14.00;97.80
28845;DHT22;15976;47.938;7.758;2023-05-10T01:52:10;14.00;97.80
28845;DHT22;15976;47.938;7.758;2023-05-10T01:54:42;14.00;97.90
28845;DHT22;15976;47.938;7.758;2023-05-10T01:57:11;14.00;97.80
28845;DHT22;15976;47.938;7.758;2023-05-10T01:59:43;13.90;97.70
28845;DHT22;15976;47.938;7.758;2023-05-10T02:02:12;13.90;97.80
28845;DHT22;15976;47.938;7.758;2023-05-10T02:04:42;14.00;97.80
28845;DHT22;15976;47.938;7.758;2023-05-10T02:07:09;13.90;97.80
28845;DHT22;15976;47.938;7.758;2023-05-10T02:09:38;14.00;97.80
28845;DHT22;15976;47.938;7.758;2023-05-10T02:12:06;14.00;97.80
28845;DHT22;15976;47.938;7.758;2023-05-10T02:14:35;13.90;97.80
28845;DHT22;15976;47.938;7.758;2023-05-10T02:17:05;13.90;97.80
28845;DHT22;15976;47.938;7.758;2023-05-10T02:19:34;13.90;97.70
28845;DHT22;15976;47.938;7.758;2023-05-10T02:22:02;13.90;97.60
28845;DHT22;15976;47.938;7.758;2023-05-10T02:24:32;13.80;97.60
28845;DHT22;15976;47.938;7.758;2023-05-10T02:27:02;13.80;97.70
28845;DHT22;15976;47.938;7.758;2023-05-10T02:29:31;13.80;97.70
28845;DHT22;15976;47.938;7.758;2023-05-10T02:31:59;13.70;97.60
28845;DHT22;15976;47.938;7.758;2023-05-10T02:34:28;13.70;97.70
28845;DHT22;15976;47.938;7.758;2023-05-10T02:36:55;13.70;97.80
28845;DHT22;15976;47.938;7.758;2023-05-10T02:39:23;13.70;97.70
28845;DHT22;15976;47.938;7.758;2023-05-10T02:41:52;13.80;97.70
28845;DHT22;15976;47.938;7.758;2023-05-10T02:44:20;13.80;97.80
28845;DHT22;15976;47.938;7.758;2023-05-10T02:46:49;13.80;97.70
28845;DHT22;15976;47.938;7.758;2023-05-10T02:49:16;13.70;97.70
28845;DHT22;15976;47.938;7.758;2023-05-10T02:51:51;13.70;97.80
28845;DHT22;15976;47.938;7.758;2023-05-10T02:54:20;13.70;97.70
28845;DHT22;15976;47.938;7.758;2023-05-10T02:56:51;13.70;97.80
28845;DHT22;15976;47.938;7.758;2023-05-10T02:59:20;13.70;97.70
28845;DHT22;15976;47.938;7.758;2023-05-10T03:01:47;13.70;97.70
28845;DHT22;15976;47.938;7.758;2023-05-10T03:04:14;13.70;97.70
28845;DHT22;15976;47.938;7.758;2023-05-10T03:06:42;13.70;97.70
28845;DHT22;15976;47.938;7.758;2023-05-10T03:09:09;13.70;97.80
28845;DHT22;15976;47.938;7.758;2023-05-10T03:11:55;13.70;97.80
28845;DHT22;15976;47.938;7.758;2023-05-10T03:19:56;13.70;97.80
28845;DHT22;15976;47.938;7.758;2023-05-10T03:22:39;13.70;97.80
28845;DHT22;15976;47.938;7.758;2023-05-10T03:25:08;13.70;97.80
28845;DHT22;15976;47.938;7.758;2023-05-10T03:27:41;13.70;97.70
28845;DHT22;15976;47.938;7.758;2023-05-10T03:30:12;13.60;97.70
28845;DHT22;15976;47.938;7.758;2023-05-10T03:32:40;13.60;97.80
28845;DHT22;15976;47.938;7.758;2023-05-10T03:35:09;13.70;97.80
28845;DHT22;15976;47.938;7.758;2023-05-10T03:37:36;13.60;97.80
28845;DHT22;15976;47.938;7.758;2023-05-10T03:40:04;13.60;97.70
28845;DHT22;15976;47.938;7.758;2023-05-10T03:42:34;13.60;97.80
28845;DHT22;15976;47.938;7.758;2023-05-10T03:45:01;13.60;97.60
28845;DHT22;15976;47.938;7.758;2023-05-10T03:47:28;13.50;97.60
28845;DHT22;15976;47.938;7.758;2023-05-10T03:49:57;13.50;97.70
28845;DHT22;15976;47.938;7.758;2023-05-10T03:52:24;13.50;97.60
28845;DHT22;15976;47.938;7.758;2023-05-10T03:54:51;13.40;97.70
28845;DHT22;15976;47.938;7.758;2023-05-10T03:57:19;13.40;97.70
28845;DHT22;15976;47.938;7.758;2023-05-10T03:59:46;13.40;97.60
28845;DHT22;15976;47.938;7.758;2023-05-10T04:02:12;13.40;97.60
28845;DHT22;15976;47.938;7.758;2023-05-10T04:04:39;13.30;97.60
28845;DHT22;15976;47.938;7.758;2023-05-10T04:07:07;13.30;97.60
28845;DHT22;15976;47.938;7.758;2023-05-10T04:09:33;13.30;97.70
28845;DHT22;15976;47.938;7.758;2023-05-10T04:12:00;13.30;97.80
28845;DHT22;15976;47.938;7.758;2023-05-10T04:14:29;13.30;97.90
28845;DHT22;15976;47.938;7.758;2023-05-10T04:16:56;13.30;97.70
28845;DHT22;15976;47.938;7.758;2023-05-10T04:19:23;13.30;97.70
28845;DHT22;15976;47.938;7.758;2023-05-10T04:21:50;13.30;97.80
28845;DHT22;15976;47.938;7.758;2023-05-10T04:24:17;13.30;97.80
28845;DHT22;15976;47.938;7.758;2023-05-10T04:26:44;13.30;97.80
28845;DHT22;15976;47.938;7.758;2023-05-10T04:29:11;13.30;97.80
28845;DHT22;15976;47.938;7.758;2023-05-10T04:31:38;13.20;97.70
28845;DHT22;15976;47.938;7.758;2023-05-10T04:34:05;13.30;97.80
28845;DHT22;15976;47.938;7.758;2023-05-10T04:36:32;13.30;97.90
28845;DHT22;15976;47.938;7.758;2023-05-10T04:39:00;13.30;97.90
28845;DHT22;15976;47.938;7.758;2023-05-10T04:41:27;13.30;97.90
28845;DHT22;15976;47.938;7.758;2023-05-10T04:43:54;13.30;97.90
28845;DHT22;15976;47.938;7.758;2023-05-10T04:46:21;13.30;98.00
28845;DHT22;15976;47.938;7.758;2023-05-10T04:48:48;13.30;98.00
28845;DHT22;15976;47.938;7.758;2023-05-10T04:51:15;13.40;98.10
28845;DHT22;15976;47.938;7.758;2023-05-10T04:53:42;13.40;98.10
28845;DHT22;15976;47.938;7.758;2023-05-10T04:56:23;13.40;98.00
28845;DHT22;15976;47.938;7.758;2023-05-10T04:58:50;13.40;98.10
28845;DHT22;15976;47.938;7.758;2023-05-10T05:01:18;13.50;98.10
28845;DHT22;15976;47.938;7.758;2023-05-10T05:03:45;13.50;97.90
28845;DHT22;15976;47.938;7.758;2023-05-10T05:06:12;13.50;98.00
28845;DHT22;15976;47.938;7.758;2023-05-10T05:08:39;13.50;97.90
28845;DHT22;15976;47.938;7.758;2023-05-10T05:11:06;13.50;97.80
28845;DHT22;15976;47.938;7.758;2023-05-10T05:13:33;13.50;97.80
28845;DHT22;15976;47.938;7.758;2023-05-10T05:16:02;13.60;97.80
28845;DHT22;15976;47.938;7.758;2023-05-10T05:18:29;13.60;97.80
28845;DHT22;15976;47.938;7.758;2023-05-10T05:20:56;13.60;97.70
28845;DHT22;15976;47.938;7.758;2023-05-10T05:23:23;13.70;97.70
28845;DHT22;15976;47.938;7.758;2023-05-10T05:25:52;13.70;97.60
28845;DHT22;15976;47.938;7.758;2023-05-10T05:28:20;13.80;97.60
28845;DHT22;15976;47.938;7.758;2023-05-10T05:30:47;13.80;97.60
28845;DHT22;15976;47.938;7.758;2023-05-10T05:33:14;13.80;97.50
28845;DHT22;15976;47.938;7.758;2023-05-10T05:35:42;13.80;97.30
28845;DHT22;15976;47.938;7.758;2023-05-10T05:38:14;13.80;97.10
28845;DHT22;15976;47.938;7.758;2023-05-10T05:40:41;13.70;96.90
28845;DHT22;15976;47.938;7.758;2023-05-10T05:43:08;13.60;96.90
28845;DHT22;15976;47.938;7.758;2023-05-10T05:45:35;13.60;97.00
28845;DHT22;15976;47.938;7.758;2023-05-10T05:48:02;13.50;97.10
28845;DHT22;15976;47.938;7.758;2023-05-10T05:50:29;13.50;97.10
28845;DHT22;15976;47.938;7.758;2023-05-10T05:52:56;13.40;97.30
28845;DHT22;15976;47.938;7.758;2023-05-10T05:55:23;13.50;97.40
28845;DHT22;15976;47.938;7.758;2023-05-10T05:57:52;13.40;97.40
28845;DHT22;15976;47.938;7.758;2023-05-10T06:00:19;13.40;97.30
28845;DHT22;15976;47.938;7.758;2023-05-10T06:02:46;13.40;97.60
28845;DHT22;15976;47.938;7.758;2023-05-10T06:05:13;13.40;97.50
28845;DHT22;15976;47.938;7.758;2023-05-10T06:07:41;13.40;97.60
28845;DHT22;15976;47.938;7.758;2023-05-10T06:10:11;13.40;97.40
28845;DHT22;15976;47.938;7.758;2023-05-10T06:12:38;13.30;97.40
28845;DHT22;15976;47.938;7.758;2023-05-10T06:15:05;13.30;97.40
28845;DHT22;15976;47.938;7.758;2023-05-10T06:17:32;13.20;97.30
28845;DHT22;15976;47.938;7.758;2023-05-10T06:19:59;13.10;97.30
28845;DHT22;15976;47.938;7.758;2023-05-10T06:22:26;13.10;97.40
28845;DHT22;15976;47.938;7.758;2023-05-10T06:24:53;13.10;97.60
28845;DHT22;15976;47.938;7.758;2023-05-10T06:27:20;13.10;97.90
28845;DHT22;15976;47.938;7.758;2023-05-10T06:29:47;13.20;97.80
28845;DHT22;15976;47.938;7.758;2023-05-10T06:32:17;13.30;97.90
28845;DHT22;15976;47.938;7.758;2023-05-10T06:34:44;13.40;98.00
28845;DHT22;15976;47.938;7.758;2023-05-10T06:37:11;13.50;97.90
28845;DHT22;15976;47.938;7.758;2023-05-10T06:39:38;13.50;97.60
28845;DHT22;15976;47.938;7.758;2023-05-10T06:42:05;13.50;97.50
28845;DHT22;15976;47.938;7.758;2023-05-10T06:44:32;13.50;97.60
28845;DHT22;15976;47.938;7.758;2023-05-10T06:46:59;13.60;97.70
28845;DHT22;15976;47.938;7.758;2023-05-10T06:49:26;13.60;97.50
28845;DHT22;15976;47.938;7.758;2023-05-10T06:51:55;13.70;97.40
28845;DHT22;15976;47.938;7.758;2023-05-10T06:54:22;13.70;97.50
28845;DHT22;15976;47.938;7.758;2023-05-10T06:56:49;13.80;97.40
28845;DHT22;15976;47.938;7.758;2023-05-10T06:59:16;13.80;97.20
28845;DHT22;15976;47.938;7.758;2023-05-10T07:01:44;13.80;97.10
28845;DHT22;15976;47.938;7.758;2023-05-10T07:04:11;13.80;97.20
28845;DHT22;15976;47.938;7.758;2023-05-10T07:06:38;13.70;97.20
28845;DHT22;15976;47.938;7.758;2023-05-10T07:09:05;13.70;97.40
28845;DHT22;15976;47.938;7.758;2023-05-10T07:11:32;13.80;97.50
28845;DHT22;15976;47.938;7.758;2023-05-10T07:13:59;13.90;97.10
28845;DHT22;15976;47.938;7.758;2023-05-10T07:16:26;13.90;97.00
28845;DHT22;15976;47.938;7.758;2023-05-10T07:18:53;14.00;97.00
28845;DHT22;15976;47.938;7.758;2023-05-10T07:21:20;14.00;96.90
28845;DHT22;15976;47.938;7.758;2023-05-10T07:23:47;14.10;96.90
28845;DHT22;15976;47.938;7.758;2023-05-10T07:26:15;14.20;97.00
28845;DHT22;15976;47.938;7.758;2023-05-10T07:28:42;14.30;97.00
28845;DHT22;15976;47.938;7.758;2023-05-10T07:31:09;14.40;96.80
28845;DHT22;15976;47.938;7.758;2023-05-10T07:33:36;14.50;96.50
28845;DHT22;15976;47.938;7.758;2023-05-10T07:36:03;14.60;96.30
28845;DHT22;15976;47.938;7.758;2023-05-10T07:38:30;14.60;96.30
28845;DHT22;15976;47.938;7.758;2023-05-10T07:40:57;14.80;97.30
28845;DHT22;15976;47.938;7.758;2023-05-10T07:43:24;15.20;96.30
28845;DHT22;15976;47.938;7.758;2023-05-10T07:45:51;15.40;95.50
28845;DHT22;15976;47.938;7.758;2023-05-10T07:48:21;15.50;95.70
28845;DHT22;15976;47.938;7.758;2023-05-10T07:50:48;15.80;95.30
28845;DHT22;15976;47.938;7.758;2023-05-10T07:53:15;15.90;94.70
28845;DHT22;15976;47.938;7.758;2023-05-10T07:55:42;16.00;94.50
28845;DHT22;15976;47.938;7.758;2023-05-10T07:58:10;16.00;94.20
28845;DHT22;15976;47.938;7.758;2023-05-10T08:00:37;16.00;93.90
28845;DHT22;15976;47.938;7.758;2023-05-10T08:03:06;16.00;94.20
28845;DHT22;15976;47.938;7.758;2023-05-10T08:05:33;16.20;94.60
28845;DHT22;15976;47.938;7.758;2023-05-10T08:08:01;16.50;94.60
28845;DHT22;15976;47.938;7.758;2023-05-10T08:10:28;17.20;94.00
28845;DHT22;15976;47.938;7.758;2023-05-10T08:12:55;17.80;91.60
28845;DHT22;15976;47.938;7.758;2023-05-10T08:15:22;18.10;90.40
28845;DHT22;15976;47.938;7.758;2023-05-10T08:17:49;18.40;88.20
28845;DHT22;15976;47.938;7.758;2023-05-10T08:20:16;18.30;86.80
28845;DHT22;15976;47.938;7.758;2023-05-10T08:22:46;18.10;87.90
28845;DHT22;15976;47.938;7.758;2023-05-10T08:25:15;18.20;86.70
28845;DHT22;15976;47.938;7.758;2023-05-10T08:27:42;18.00;85.90
28845;DHT22;15976;47.938;7.758;2023-05-10T08:30:10;17.70;84.40
28845;DHT22;15976;47.938;7.758;2023-05-10T08:32:37;17.40;84.50
28845;DHT22;15976;47.938;7.758;2023-05-10T08:35:05;17.20;87.10
28845;DHT22;15976;47.938;7.758;2023-05-10T08:37:31;17.60;88.30
28845;DHT22;15976;47.938;7.758;2023-05-10T08:39:59;18.60;83.40
28845;DHT22;15976;47.938;7.758;2023-05-10T08:42:28;19.50;78.70
28845;DHT22;15976;47.938;7.758;2023-05-10T08:44:57;20.40;74.90
28845;DHT22;15976;47.938;7.758;2023-05-10T08:47:26;21.20;70.90
28845;DHT22;15976;47.938;7.758;2023-05-10T08:49:54;21.80;67.10
28845;DHT22;15976;47.938;7.758;2023-05-10T08:52:21;21.80;65.10
28845;DHT22;15976;47.938;7.758;2023-05-10T08:54:49;21.30;63.60
28845;DHT22;15976;47.938;7.758;2023-05-10T08:57:17;20.60;64.20
28845;DHT22;15976;47.938;7.758;2023-05-10T08:59:45;19.80;66.00
28845;DHT22;15976;47.938;7.758;2023-05-10T09:02:13;19.20;67.30
28845;DHT22;15976;47.938;7.758;2023-05-10T09:04:44;18.70;67.50
28845;DHT22;15976;47.938;7.758;2023-05-10T09:07:11;18.30;67.90
28845;DHT22;15976;47.938;7.758;2023-05-10T09:09:39;18.00;68.20
28845;DHT22;15976;47.938;7.758;2023-05-10T09:12:06;17.80;68.60
28845;DHT22;15976;47.938;7.758;2023-05-10T09:14:35;17.70;68.60
28845;DHT22;15976;47.938;7.758;2023-05-10T09:17:02;17.50;68.70
28845;DHT22;15976;47.938;7.758;2023-05-10T09:19:29;17.50;68.90
28845;DHT22;15976;47.938;7.758;2023-05-10T09:21:56;17.50;69.20
28845;DHT22;15976;47.938;7.758;2023-05-10T09:24:26;17.60;68.70
28845;DHT22;15976;47.938;7.758;2023-05-10T09:26:53;17.70;68.10
28845;DHT22;15976;47.938;7.758;2023-05-10T09:29:22;17.70;67.30
28845;DHT22;15976;47.938;7.758;2023-05-10T09:31:51;17.80;67.00
28845;DHT22;15976;47.938;7.758;2023-05-10T09:34:19;18.10;67.40
28845;DHT22;15976;47.938;7.758;2023-05-10T09:36:55;18.80;65.60
28845;DHT22;15976;47.938;7.758;2023-05-10T09:39:30;19.90;62.60
28845;DHT22;15976;47.938;7.758;2023-05-10T09:41:59;20.80;58.00
28845;DHT22;15976;47.938;7.758;2023-05-10T09:44:27;21.50;54.10
28845;DHT22;15976;47.938;7.758;2023-05-10T09:46:54;21.70;53.00
28845;DHT22;15976;47.938;7.758;2023-05-10T09:49:22;21.50;53.00
28845;DHT22;15976;47.938;7.758;2023-05-10T09:52:06;21.00;53.30
28845;DHT22;15976;47.938;7.758;2023-05-10T09:54:34;20.70;54.60
28845;DHT22;15976;47.938;7.758;2023-05-10T09:57:01;21.10;54.50
28845;DHT22;15976;47.938;7.758;2023-05-10T09:59:28;21.90;52.70
28845;DHT22;15976;47.938;7.758;2023-05-10T10:01:57;22.50;50.20
28845;DHT22;15976;47.938;7.758;2023-05-10T10:04:25;23.00;48.60
28845;DHT22;15976;47.938;7.758;2023-05-10T10:07:02;23.60;48.50
28845;DHT22;15976;47.938;7.758;2023-05-10T10:09:32;24.00;47.20
28845;DHT22;15976;47.938;7.758;2023-05-10T10:12:03;23.50;47.40
28845;DHT22;15976;47.938;7.758;2023-05-10T10:14:31;23.70;45.90
28845;DHT22;15976;47.938;7.758;2023-05-10T10:17:00;23.50;46.10
28845;DHT22;15976;47.938;7.758;2023-05-10T10:19:33;23.50;46.60
28845;DHT22;15976;47.938;7.758;2023-05-10T10:22:00;24.00;45.70
28845;DHT22;15976;47.938;7.758;2023-05-10T10:24:27;24.80;45.10
28845;DHT22;15976;47.938;7.758;2023-05-10T10:26:59;25.60;43.40
28845;DHT22;15976;47.938;7.758;2023-05-10T10:29:52;26.10;41.10
28845;DHT22;15976;47.938;7.758;2023-05-10T10:35:24;27.40;38.50
28845;DHT22;15976;47.938;7.758;2023-05-10T10:37:51;27.00;40.00
28845;DHT22;15976;47.938;7.758;2023-05-10T10:40:32;27.70;39.90
28845;DHT22;15976;47.938;7.758;2023-05-10T10:43:27;28.30;37.20
28845;DHT22;15976;47.938;7.758;2023-05-10T10:46:17;28.40;35.90
28845;DHT22;15976;47.938;7.758;2023-05-10T10:49:31;28.60;35.10
28845;DHT22;15976;47.938;7.758;2023-05-10T10:51:39;28.20;36.20
28845;DHT22;15976;47.938;7.758;2023-05-10T10:54:10;28.10;36.90
28845;DHT22;15976;47.938;7.758;2023-05-10T10:56:37;28.40;36.60
28845;DHT22;15976;47.938;7.758;2023-05-10T10:59:05;29.30;35.40
28845;DHT22;15976;47.938;7.758;2023-05-10T11:01:35;29.40;34.80
28845;DHT22;15976;47.938;7.758;2023-05-10T11:06:36;27.60;36.10
28845;DHT22;15976;47.938;7.758;2023-05-10T11:09:07;27.60;36.10
28845;DHT22;15976;47.938;7.758;2023-05-10T11:11:35;28.30;35.90
28845;DHT22;15976;47.938;7.758;2023-05-10T11:14:07;28.80;35.30
28845;DHT22;15976;47.938;7.758;2023-05-10T11:16:44;29.00;34.70
28845;DHT22;15976;47.938;7.758;2023-05-10T11:19:13;29.10;34.10
28845;DHT22;15976;47.938;7.758;2023-05-10T11:24:28;30.40;33.40
28845;DHT22;15976;47.938;7.758;2023-05-10T11:26:56;30.60;32.00
28845;DHT22;15976;47.938;7.758;2023-05-10T11:29:23;29.60;32.20
28845;DHT22;15976;47.938;7.758;2023-05-10T11:31:53;29.40;32.60
28845;DHT22;15976;47.938;7.758;2023-05-10T11:34:24;29.70;32.20
28845;DHT22;15976;47.938;7.758;2023-05-10T11:36:53;30.10;32.50
28845;DHT22;15976;47.938;7.758;2023-05-10T11:39:27;30.70;32.40
28845;DHT22;15976;47.938;7.758;2023-05-10T11:41:55;31.20;31.00
28845;DHT22;15976;47.938;7.758;2023-05-10T11:44:22;31.40;30.50
28845;DHT22;15976;47.938;7.758;2023-05-10T11:46:49;31.90;30.30
28845;DHT22;15976;47.938;7.758;2023-05-10T11:49:16;32.60;29.60
28845;DHT22;15976;47.938;7.758;2023-05-10T11:51:43;33.00;28.10
28845;DHT22;15976;47.938;7.758;2023-05-10T11:54:11;33.10;27.70
28845;DHT22;15976;47.938;7.758;2023-05-10T11:56:39;33.80;28.20
28845;DHT22;15976;47.938;7.758;2023-05-10T11:59:07;33.90;27.30
28845;DHT22;15976;47.938;7.758;2023-05-10T12:01:35;33.60;27.10
28845;DHT22;15976;47.938;7.758;2023-05-10T12:04:02;33.90;26.10
28845;DHT22;15976;47.938;7.758;2023-05-10T12:06:32;33.60;25.50
28845;DHT22;15976;47.938;7.758;2023-05-10T12:09:00;33.30;26.20
28845;DHT22;15976;47.938;7.758;2023-05-10T12:11:32;33.60;26.30
28845;DHT22;15976;47.938;7.758;2023-05-10T12:13:58;33.90;26.40
28845;DHT22;15976;47.938;7.758;2023-05-10T12:16:28;33.30;26.50
28845;DHT22;15976;47.938;7.758;2023-05-10T12:18:57;32.00;27.20
28845;DHT22;15976;47.938;7.758;2023-05-10T12:21:26;30.50;28.30
28845;DHT22;15976;47.938;7.758;2023-05-10T12:24:03;29.10;29.80
28845;DHT22;15976;47.938;7.758;2023-05-10T12:26:32;27.80;31.20
28845;DHT22;15976;47.938;7.758;2023-05-10T12:29:16;26.50;33.60
28845;DHT22;15976;47.938;7.758;2023-05-10T12:31:57;25.20;35.10
28845;DHT22;15976;47.938;7.758;2023-05-10T12:36:53;23.20;38.00
28845;DHT22;15976;47.938;7.758;2023-05-10T12:39:20;22.70;39.30
28845;DHT22;15976;47.938;7.758;2023-05-10T12:41:47;22.40;39.80
28845;DHT22;15976;47.938;7.758;2023-05-10T12:44:14;22.80;39.90
28845;DHT22;15976;47.938;7.758;2023-05-10T12:46:41;23.20;39.30
28845;DHT22;15976;47.938;7.758;2023-05-10T12:49:08;23.20;38.30
28845;DHT22;15976;47.938;7.758;2023-05-10T12:51:35;23.00;38.20
28845;DHT22;15976;47.938;7.758;2023-05-10T12:54:02;22.80;38.90
28845;DHT22;15976;47.938;7.758;2023-05-10T12:56:30;22.60;39.40
28845;DHT22;15976;47.938;7.758;2023-05-10T12:58:57;22.40;40.50
28845;DHT22;15976;47.938;7.758;2023-05-10T13:01:24;22.20;41.20
28845;DHT22;15976;47.938;7.758;2023-05-10T13:03:51;22.00;41.80
28845;DHT22;15976;47.938;7.758;2023-05-10T13:06:17;21.80;42.10
28845;DHT22;15976;47.938;7.758;2023-05-10T13:08:44;21.60;42.60
28845;DHT22;15976;47.938;7.758;2023-05-10T13:11:11;21.60;43.20
28845;DHT22;15976;47.938;7.758;2023-05-10T13:13:43;21.50;43.50
28845;DHT22;15976;47.938;7.758;2023-05-10T13:16:10;21.70;43.80
28845;DHT22;15976;47.938;7.758;2023-05-10T13:18:37;22.00;43.20
28845;DHT22;15976;47.938;7.758;2023-05-10T13:21:04;22.50;42.60
28845;DHT22;15976;47.938;7.758;2023-05-10T13:23:32;23.20;41.90
28845;DHT22;15976;47.938;7.758;2023-05-10T13:25:59;23.60;40.90
28845;DHT22;15976;47.938;7.758;2023-05-10T13:28:26;23.60;41.20
28845;DHT22;15976;47.938;7.758;2023-05-10T13:30:53;23.50;40.60
28845;DHT22;15976;47.938;7.758;2023-05-10T13:33:20;23.40;39.40
28845;DHT22;15976;47.938;7.758;2023-05-10T13:35:47;23.10;39.80
28845;DHT22;15976;47.938;7.758;2023-05-10T13:38:13;22.80;39.90
28845;DHT22;15976;47.938;7.758;2023-05-10T13:40:40;22.60;40.60
28845;DHT22;15976;47.938;7.758;2023-05-10T13:43:07;22.50;40.90
28845;DHT22;15976;47.938;7.758;2023-05-10T13:45:34;22.20;41.20
28845;DHT22;15976;47.938;7.758;2023-05-10T13:48:01;21.80;42.10
28845;DHT22;15976;47.938;7.758;2023-05-10T13:50:29;21.50;43.00
28845;DHT22;15976;47.938;7.758;2023-05-10T13:52:56;21.30;43.30
28845;DHT22;15976;47.938;7.758;2023-05-10T13:55:23;21.30;43.80
28845;DHT22;15976;47.938;7.758;2023-05-10T13:57:50;21.30;43.40
28845;DHT22;15976;47.938;7.758;2023-05-10T14:00:17;21.30;43.00
28845;DHT22;15976;47.938;7.758;2023-05-10T14:02:44;21.70;42.80
28845;DHT22;15976;47.938;7.758;2023-05-10T14:05:11;21.80;42.40
28845;DHT22;15976;47.938;7.758;2023-05-10T14:07:39;21.80;42.80
28845;DHT22;15976;47.938;7.758;2023-05-10T14:10:06;21.70;43.00
28845;DHT22;15976;47.938;7.758;2023-05-10T14:12:33;21.60;43.30
28845;DHT22;15976;47.938;7.758;2023-05-10T14:15:00;21.40;43.10
28845;DHT22;15976;47.938;7.758;2023-05-10T14:17:27;21.00;43.40
28845;DHT22;15976;47.938;7.758;2023-05-10T14:19:55;20.80;44.30
28845;DHT22;15976;47.938;7.758;2023-05-10T14:22:22;20.90;44.30
28845;DHT22;15976;47.938;7.758;2023-05-10T14:24:49;21.20;44.30
28845;DHT22;15976;47.938;7.758;2023-05-10T14:27:16;21.40;44.20
28845;DHT22;15976;47.938;7.758;2023-05-10T14:29:47;21.40;43.60
28845;DHT22;15976;47.938;7.758;2023-05-10T14:32:14;21.20;43.40
28845;DHT22;15976;47.938;7.758;2023-05-10T14:34:41;21.20;43.30
28845;DHT22;15976;47.938;7.758;2023-05-10T14:37:10;21.20;43.10
28845;DHT22;15976;47.938;7.758;2023-05-10T14:39:38;21.10;43.20
28845;DHT22;15976;47.938;7.758;2023-05-10T14:42:05;21.10;43.70
28845;DHT22;15976;47.938;7.758;2023-05-10T14:44:32;21.20;43.90
28845;DHT22;15976;47.938;7.758;2023-05-10T14:46:59;21.30;44.00
28845;DHT22;15976;47.938;7.758;2023-05-10T14:49:26;21.30;44.10
28845;DHT22;15976;47.938;7.758;2023-05-10T14:51:53;21.50;44.20
28845;DHT22;15976;47.938;7.758;2023-05-10T14:54:20;21.50;44.40
28845;DHT22;15976;47.938;7.758;2023-05-10T14:56:47;21.50;44.90
28845;DHT22;15976;47.938;7.758;2023-05-10T14:59:16;21.70;45.40
28845;DHT22;15976;47.938;7.758;2023-05-10T15:01:44;22.60;44.80
28845;DHT22;15976;47.938;7.758;2023-05-10T15:04:18;23.20;43.60
28845;DHT22;15976;47.938;7.758;2023-05-10T15:06:46;23.60;42.90
28845;DHT22;15976;47.938;7.758;2023-05-10T15:09:13;24.60;42.00
28845;DHT22;15976;47.938;7.758;2023-05-10T15:11:40;25.60;39.80
28845;DHT22;15976;47.938;7.758;2023-05-10T15:14:07;26.10;36.90
28845;DHT22;15976;47.938;7.758;2023-05-10T15:16:34;26.50;35.70
28845;DHT22;15976;47.938;7.758;2023-05-10T15:19:02;26.40;35.30
28845;DHT22;15976;47.938;7.758;2023-05-10T15:21:29;26.20;35.70
28845;DHT22;15976;47.938;7.758;2023-05-10T15:24:01;25.80;35.90
28845;DHT22;15976;47.938;7.758;2023-05-10T15:26:28;24.90;36.50
28845;DHT22;15976;47.938;7.758;2023-05-10T15:28:55;24.10;38.20
28845;DHT22;15976;47.938;7.758;2023-05-10T15:31:22;23.40;39.70
28845;DHT22;15976;47.938;7.758;2023-05-10T15:33:49;23.00;41.00
28845;DHT22;15976;47.938;7.758;2023-05-10T15:36:16;22.80;41.60
28845;DHT22;15976;47.938;7.758;2023-05-10T15:38:45;22.70;42.00
28845;DHT22;15976;47.938;7.758;2023-05-10T15:41:12;22.50;42.10
28845;DHT22;15976;47.938;7.758;2023-05-10T15:43:38;22.30;42.60
28845;DHT22;15976;47.938;7.758;2023-05-10T15:46:06;22.10;42.40
28845;DHT22;15976;47.938;7.758;2023-05-10T15:48:33;21.70;43.00
28845;DHT22;15976;47.938;7.758;2023-05-10T15:51:00;21.50;43.40
28845;DHT22;15976;47.938;7.758;2023-05-10T15:53:27;21.30;43.80
28845;DHT22;15976;47.938;7.758;2023-05-10T15:55:54;21.10;44.10
28845;DHT22;15976;47.938;7.758;2023-05-10T15:58:20;21.10;44.40
28845;DHT22;15976;47.938;7.758;2023-05-10T16:00:47;21.10;44.70
28845;DHT22;15976;47.938;7.758;2023-05-10T16:03:14;21.10;45.00
28845;DHT22;15976;47.938;7.758;2023-05-10T16:05:42;20.90;45.30
28845;DHT22;15976;47.938;7.758;2023-05-10T16:08:09;20.80;45.80
28845;DHT22;15976;47.938;7.758;2023-05-10T16:10:36;20.70;46.30
28845;DHT22;15976;47.938;7.758;2023-05-10T16:13:03;20.60;46.80
28845;DHT22;15976;47.938;7.758;2023-05-10T16:15:30;20.60;47.10